createdAt,value
2023-04-04T07:46:01.719Z,16.50
2023-04-04T07:48:31.778Z,16.47
2023-04-04T07:51:04.726Z,16.17
2023-04-04T07:53:33.135Z,15.78
2023-04-04T07:56:06.694Z,15.49
2023-04-04T07:58:37.699Z,15.48
2023-04-04T08:01:06.190Z,15.49
2023-04-04T08:03:36.971Z,15.45
2023-04-04T08:06:06.187Z,15.44
2023-04-04T08:08:34.346Z,15.09
2023-04-04T08:11:04.049Z,14.88
2023-04-04T08:13:32.914Z,14.65
2023-04-04T08:16:01.541Z,14.57
2023-04-04T08:18:32.063Z,14.44
2023-04-04T08:21:01.030Z,14.34
2023-04-04T08:23:30.847Z,14.31
2023-04-04T08:26:01.173Z,14.26
2023-04-04T08:28:29.576Z,14.10
2023-04-04T08:30:58.040Z,14.20
2023-04-04T08:33:37.639Z,15.04
2023-04-04T08:36:19.005Z,15.83
2023-04-04T08:38:47.851Z,16.06
2023-04-04T08:41:16.342Z,16.13
2023-04-04T08:43:54.400Z,16.04
2023-04-04T08:59:23.277Z,15.28
2023-04-04T09:02:09.079Z,15.07
2023-04-04T09:04:38.205Z,15.03
2023-04-04T09:07:07.244Z,14.90
2023-04-04T09:09:38.066Z,14.79
2023-04-04T09:12:06.349Z,14.72
2023-04-04T09:14:34.730Z,14.63
2023-04-04T09:17:03.687Z,14.39
2023-04-04T09:19:31.950Z,13.83
2023-04-04T09:22:00.605Z,13.43
2023-04-04T09:24:42.291Z,13.37
2023-04-04T09:27:11.512Z,13.45
2023-04-04T09:29:40.689Z,13.51
2023-04-04T09:32:18.284Z,13.55
2023-04-04T09:34:47.794Z,13.41
2023-04-04T09:37:17.011Z,13.33
2023-04-04T09:39:45.780Z,13.32
2023-04-04T09:42:14.801Z,13.36
2023-04-04T09:44:47.193Z,13.38
2023-04-04T09:50:01.525Z,13.15
2023-04-04T09:52:33.376Z,13.07
2023-04-04T09:55:04.350Z,13.04
2023-04-04T09:57:34.741Z,13.22
2023-04-04T10:00:04.860Z,13.37
2023-04-04T10:02:39.260Z,13.27
2023-04-04T10:05:10.402Z,13.35
2023-04-04T10:07:40.092Z,13.51
2023-04-04T10:10:12.014Z,13.51
2023-04-04T10:12:40.532Z,13.56
2023-04-04T10:15:10.540Z,13.62
2023-04-04T10:17:41.832Z,13.88
2023-04-04T10:20:11.104Z,14.10
2023-04-04T10:22:47.352Z,14.10
2023-04-04T10:25:15.843Z,14.21
2023-04-04T10:27:44.224Z,14.38
2023-04-04T10:30:13.941Z,14.43
2023-04-04T10:32:53.143Z,14.44
2023-04-04T10:35:22.761Z,14.25
2023-04-04T10:37:58.568Z,14.26
2023-04-04T10:40:29.267Z,14.21
2023-04-04T10:42:57.863Z,14.31
2023-04-04T10:45:26.166Z,14.36
2023-04-04T10:47:54.463Z,14.33
2023-04-04T10:50:29.390Z,14.35
2023-04-04T10:53:01.234Z,14.43
2023-04-04T10:55:29.799Z,14.46
2023-04-04T10:57:58.307Z,14.39
2023-04-04T11:00:27.687Z,14.18
2023-04-04T11:03:02.064Z,14.06
2023-04-04T11:05:51.932Z,14.07
2023-04-04T11:08:25.401Z,14.13
2023-04-04T11:10:54.704Z,14.18
2023-04-04T11:13:29.530Z,14.22
2023-04-04T11:16:16.442Z,14.10
2023-04-04T11:18:51.057Z,14.09
2023-04-04T11:21:20.789Z,14.24
2023-04-04T11:23:49.314Z,14.35
2023-04-04T11:26:27.844Z,14.35
2023-04-04T11:28:57.044Z,14.28
2023-04-04T11:31:33.052Z,14.21
2023-04-04T11:34:08.432Z,14.17
2023-04-04T11:36:40.094Z,14.12
2023-04-04T11:39:19.952Z,14.12
2023-04-04T11:41:57.660Z,14.06
2023-04-04T11:44:30.791Z,14.06
2023-04-04T11:47:11.742Z,14.01
2023-04-04T11:49:42.687Z,13.64
2023-04-04T11:52:17.903Z,13.56
2023-04-04T11:54:49.203Z,13.66
2023-04-04T11:57:18.938Z,13.71
2023-04-04T11:59:54.374Z,13.73
2023-04-04T12:02:27.781Z,13.71
2023-04-04T12:04:56.443Z,13.76
2023-04-04T12:07:27.181Z,13.90
2023-04-04T12:09:57.928Z,13.92
2023-04-04T12:12:27.929Z,13.89
2023-04-04T12:15:06.657Z,13.95
2023-04-04T12:17:40.953Z,14.03
2023-04-04T12:20:14.284Z,14.08
2023-04-04T12:22:45.811Z,14.13
2023-04-04T12:25:14.506Z,14.06
2023-04-04T12:27:45.178Z,14.09
2023-04-04T12:30:16.137Z,13.94
2023-04-04T12:32:48.230Z,13.83
2023-04-04T12:35:16.778Z,13.84
2023-04-04T12:38:07.465Z,13.95
2023-04-04T12:40:38.881Z,14.03
